Moffett Field, California
Current Conditions -  °F | °C
As of 7:56 PM on Saturday 25 Oct 2014 (Local Time) from KNUQ Reporting Station
Broken Clouds Broken Clouds  
Wind Chill: 64°   Ceiling: 5500
Heat Index: 64°   Visibility: 10mi
Dew Point: 58°   Wind: 5mph
Humidity: 80%   Direction: 260°W
Pressure: 30.11"   Gusts: NA
Location:  37.4154°N, 122.058°W
Report Text: KNUQ 260256Z 26004KT 10SM BKN055 18/14 A3011 RMK AO2 SLP198 T01780144 53012
Loading
Personal Weather Stations






























Interactive Weather Map
Tropical Storm Tracking
New forecast layout! Learn more

10-Day Weather Forecast

Advertisements
Track Severe Weather on mobile